createdAt,value
2018-04-18T00:02:27.126Z,12.20
2018-04-18T00:04:55.211Z,12.20
2018-04-18T00:07:23.250Z,12.20
2018-04-18T00:09:51.290Z,12.20
2018-04-18T00:12:19.370Z,12.10
2018-04-18T00:14:47.446Z,12.10
2018-04-18T00:17:15.526Z,12.00
2018-04-18T00:19:43.607Z,12.00
2018-04-18T00:22:11.661Z,12.00
2018-04-18T00:24:39.738Z,12.00
2018-04-18T00:27:07.816Z,11.90
2018-04-18T00:29:35.902Z,11.90
2018-04-18T00:32:04.721Z,11.90
2018-04-18T00:34:32.801Z,11.90
2018-04-18T00:37:00.874Z,11.90
2018-04-18T00:39:28.949Z,11.80
2018-04-18T00:41:57.765Z,11.70
2018-04-18T00:44:25.854Z,11.70
2018-04-18T00:46:53.895Z,11.70
2018-04-18T00:49:21.937Z,11.70
2018-04-18T00:51:50.022Z,11.60
2018-04-18T00:54:18.093Z,11.60
2018-04-18T00:56:46.163Z,11.60
2018-04-18T00:59:14.246Z,11.50
2018-04-18T01:01:43.086Z,11.40
2018-04-18T01:04:11.157Z,11.40
2018-04-18T01:06:39.230Z,11.40
2018-04-18T01:09:07.281Z,11.40
2018-04-18T01:11:35.391Z,11.40
2018-04-18T01:14:03.462Z,11.40
2018-04-18T01:16:31.530Z,11.30
2018-04-18T01:18:59.697Z,11.30
2018-04-18T01:21:27.778Z,11.20
2018-04-18T01:23:55.841Z,11.20
2018-04-18T01:26:23.918Z,11.20
2018-04-18T01:28:51.996Z,11.20
2018-04-18T01:31:20.065Z,11.20
2018-04-18T01:33:48.154Z,11.20
2018-04-18T01:36:16.231Z,11.20
2018-04-18T01:38:44.281Z,11.20
2018-04-18T01:41:12.371Z,11.20
2018-04-18T01:43:40.437Z,11.20
2018-04-18T01:46:08.511Z,11.20
2018-04-18T01:48:36.582Z,11.10
2018-04-18T01:51:04.630Z,11.00
2018-04-18T01:53:32.700Z,11.00
2018-04-18T01:56:00.765Z,10.90
2018-04-18T01:58:28.799Z,10.90
2018-04-18T02:00:57.641Z,10.90
2018-04-18T02:03:25.735Z,10.90
2018-04-18T02:05:53.807Z,10.90
2018-04-18T02:11:22.145Z,10.80
2018-04-18T02:13:50.194Z,10.80
2018-04-18T02:16:18.298Z,10.80
2018-04-18T02:18:46.371Z,10.80
2018-04-18T02:21:14.415Z,10.80
2018-04-18T02:23:42.478Z,10.70
2018-04-18T02:26:10.538Z,10.80
2018-04-18T02:28:38.589Z,10.80
2018-04-18T02:31:06.682Z,10.70
2018-04-18T02:33:34.751Z,10.80
2018-04-18T02:36:02.845Z,10.70
2018-04-18T02:38:30.891Z,10.70
2018-04-18T02:40:58.971Z,10.60
2018-04-18T02:43:27.025Z,10.60
2018-04-18T02:45:55.082Z,10.60
2018-04-18T02:48:23.174Z,10.50
2018-04-18T02:50:51.254Z,10.50
2018-04-18T02:53:19.325Z,10.50
2018-04-18T02:55:47.377Z,10.50
2018-04-18T02:58:15.443Z,10.50
2018-04-18T03:00:43.545Z,10.50
2018-04-18T03:03:11.599Z,10.40
2018-04-18T03:05:39.670Z,10.40
2018-04-18T03:08:07.747Z,10.40
2018-04-18T03:10:35.826Z,10.40
2018-04-18T03:13:03.897Z,10.30
2018-04-18T03:15:31.969Z,10.20
2018-04-18T03:18:00.049Z,10.20
2018-04-18T03:20:28.111Z,10.10
2018-04-18T03:22:56.185Z,10.20
2018-04-18T03:25:24.254Z,10.20
2018-04-18T03:27:52.302Z,10.20
2018-04-18T03:30:20.382Z,10.20
2018-04-18T03:32:48.475Z,10.20
2018-04-18T03:35:16.562Z,10.20
2018-04-18T03:37:44.618Z,10.20
2018-04-18T03:40:12.681Z,10.10
2018-04-18T03:42:40.749Z,10.10
2018-04-18T03:45:08.825Z,10.10
2018-04-18T03:47:36.897Z,10.10
2018-04-18T03:50:04.970Z,10.10
2018-04-18T03:52:33.070Z,10.10
2018-04-18T03:55:01.110Z,10.00
2018-04-18T03:57:29.168Z,10.00
2018-04-18T03:59:57.255Z,10.00
2018-04-18T04:02:25.350Z,10.00
2018-04-18T04:04:53.362Z,9.90
2018-04-18T04:07:21.441Z,9.90
2018-04-18T04:09:49.509Z,9.80
2018-04-18T04:12:17.554Z,9.80
2018-04-18T04:14:45.680Z,9.80
2018-04-18T04:17:25.531Z,9.80
2018-04-18T04:20:05.430Z,9.70
2018-04-18T04:22:45.358Z,9.70
2018-04-18T04:25:14.190Z,9.70
2018-04-18T04:27:43.031Z,9.70
2018-04-18T04:30:11.921Z,9.70
2018-04-18T04:32:39.973Z,9.70
2018-04-18T04:35:08.064Z,9.70
2018-04-18T04:37:36.122Z,9.70
2018-04-18T04:40:04.227Z,9.70
2018-04-18T04:42:32.299Z,9.70
2018-04-18T04:45:00.385Z,9.70
2018-04-18T04:47:28.404Z,9.70
2018-04-18T04:49:56.458Z,9.70
2018-04-18T04:52:24.511Z,9.70
2018-04-18T04:54:52.566Z,9.70
2018-04-18T04:57:20.600Z,9.70
2018-04-18T04:59:48.677Z,9.70
2018-04-18T05:02:16.749Z,9.80
2018-04-18T05:04:44.834Z,9.70
2018-04-18T05:09:46.345Z,9.70
2018-04-18T05:12:14.421Z,9.80
2018-04-18T05:14:43.255Z,9.80
2018-04-18T05:17:11.294Z,9.80
2018-04-18T05:19:45.146Z,9.80
2018-04-18T05:22:13.214Z,9.80
2018-04-18T05:24:42.017Z,9.90
2018-04-18T05:27:10.070Z,9.80
2018-04-18T05:29:38.109Z,9.90
2018-04-18T05:32:06.182Z,10.00
2018-04-18T05:34:34.270Z,10.00
2018-04-18T05:37:02.330Z,10.00
2018-04-18T05:39:30.435Z,10.10
2018-04-18T05:41:58.530Z,10.10
2018-04-18T05:44:26.595Z,10.10
2018-04-18T05:46:54.661Z,10.10
2018-04-18T05:49:22.757Z,10.20
2018-04-18T05:51:54.005Z,10.10
2018-04-18T05:54:22.069Z,10.20
2018-04-18T05:56:51.077Z,10.20
2018-04-18T05:59:19.153Z,10.20
2018-04-18T06:01:47.241Z,10.20
2018-04-18T06:04:16.078Z,10.30
2018-04-18T06:06:44.152Z,10.30
2018-04-18T06:09:14.222Z,10.40
2018-04-18T06:11:43.051Z,10.50
2018-04-18T06:14:11.117Z,10.40
2018-04-18T06:16:39.194Z,10.50
2018-04-18T06:19:09.426Z,10.50
2018-04-18T06:21:37.433Z,10.60
2018-04-18T06:24:05.499Z,10.60
2018-04-18T06:26:33.556Z,10.60
2018-04-18T06:29:03.728Z,10.60
2018-04-18T06:31:31.778Z,10.70
2018-04-18T06:34:07.802Z,10.70
2018-04-18T06:36:35.869Z,10.70
2018-04-18T06:39:03.954Z,10.80
2018-04-18T06:41:36.954Z,10.90
2018-04-18T06:44:05.020Z,10.90
2018-04-18T06:46:33.082Z,11.00
2018-04-18T06:49:01.150Z,11.10
2018-04-18T06:51:29.271Z,11.10
2018-04-18T06:53:57.338Z,11.20
2018-04-18T06:56:25.421Z,11.30
2018-04-18T06:58:53.521Z,11.40
2018-04-18T07:01:21.574Z,11.50
2018-04-18T07:03:49.610Z,11.50
2018-04-18T07:06:17.677Z,11.60
2018-04-18T07:08:45.733Z,11.60
2018-04-18T07:11:13.841Z,11.70
2018-04-18T07:13:41.853Z,11.80
2018-04-18T07:16:09.910Z,11.80
2018-04-18T07:18:37.992Z,11.90
2018-04-18T07:21:06.052Z,12.00
2018-04-18T07:23:34.106Z,12.10
2018-04-18T07:26:02.182Z,12.20
2018-04-18T07:28:30.269Z,12.30
2018-04-18T07:30:58.314Z,12.40
2018-04-18T07:33:27.139Z,12.60
2018-04-18T07:35:55.190Z,12.50
2018-04-18T07:38:23.234Z,12.70
2018-04-18T07:40:51.279Z,12.80
2018-04-18T07:43:20.286Z,12.90
2018-04-18T07:45:48.342Z,13.10
2018-04-18T07:48:16.409Z,13.20
2018-04-18T07:50:44.473Z,13.40
2018-04-18T07:53:12.622Z,13.50
2018-04-18T07:55:40.666Z,13.60
2018-04-18T07:58:08.725Z,13.70
2018-04-18T08:00:36.782Z,13.80
2018-04-18T08:03:04.858Z,13.90
2018-04-18T08:05:33.033Z,14.00
2018-04-18T08:08:01.097Z,14.10
2018-04-18T08:10:29.166Z,14.20
2018-04-18T08:12:57.263Z,14.30
2018-04-18T08:15:25.346Z,14.40
2018-04-18T08:17:53.407Z,14.50
2018-04-18T08:20:21.474Z,14.60
2018-04-18T08:22:49.542Z,14.70
2018-04-18T08:25:17.570Z,14.80
2018-04-18T08:27:57.557Z,14.80
2018-04-18T08:30:25.618Z,14.90
2018-04-18T08:32:53.697Z,15.00
2018-04-18T08:35:21.790Z,15.10
2018-04-18T08:37:49.835Z,15.20
2018-04-18T08:40:17.881Z,15.30
2018-04-18T08:42:45.989Z,15.30
2018-04-18T08:45:14.057Z,15.50
2018-04-18T08:47:42.139Z,15.60
2018-04-18T08:50:10.218Z,15.70
2018-04-18T08:52:38.266Z,15.80
2018-04-18T08:55:06.327Z,15.80
2018-04-18T08:57:42.102Z,15.90
2018-04-18T09:00:10.167Z,16.00
2018-04-18T09:02:38.213Z,16.10
2018-04-18T09:05:06.245Z,16.20
2018-04-18T09:07:35.076Z,16.50
2018-04-18T09:10:03.118Z,16.40
2018-04-18T09:12:31.210Z,16.60
2018-04-18T09:14:59.257Z,16.70
2018-04-18T09:17:28.094Z,16.90
2018-04-18T09:19:56.129Z,16.90
2018-04-18T09:22:24.953Z,17.10
2018-04-18T09:24:52.985Z,17.10
2018-04-18T09:27:21.814Z,17.40
2018-04-18T09:29:49.887Z,17.30
2018-04-18T09:32:17.933Z,17.50
2018-04-18T09:34:45.985Z,17.60
2018-04-18T09:37:14.029Z,17.70
2018-04-18T09:39:42.082Z,17.80
2018-04-18T09:42:10.124Z,18.00
2018-04-18T09:44:38.168Z,18.10
2018-04-18T09:47:07.238Z,18.30
2018-04-18T09:49:35.293Z,18.40
2018-04-18T09:52:03.342Z,18.60
2018-04-18T09:54:31.402Z,18.70
2018-04-18T09:56:59.454Z,18.80
2018-04-18T09:59:28.266Z,18.80
2018-04-18T10:02:11.950Z,18.80
2018-04-18T10:04:44.921Z,18.90
2018-04-18T10:07:12.990Z,19.00
2018-04-18T10:09:41.086Z,19.20
2018-04-18T10:12:09.153Z,19.30
2018-04-18T10:14:37.213Z,19.40
2018-04-18T10:17:05.257Z,19.40
2018-04-18T10:19:33.310Z,19.50
2018-04-18T10:22:02.341Z,19.70
2018-04-18T10:24:31.101Z,19.70
2018-04-18T10:26:59.155Z,19.70
2018-04-18T10:29:27.218Z,19.90
2018-04-18T10:31:55.254Z,19.90
2018-04-18T10:34:23.294Z,20.00
2018-04-18T10:36:51.351Z,20.10
2018-04-18T10:39:20.174Z,20.20
2018-04-18T10:41:48.222Z,20.20
2018-04-18T10:44:16.266Z,20.20
2018-04-18T10:46:44.346Z,20.20
2018-04-18T10:49:12.385Z,20.30
2018-04-18T10:51:40.441Z,20.30
2018-04-18T10:54:08.498Z,20.40
2018-04-18T10:56:36.537Z,20.50
2018-04-18T10:59:04.590Z,20.60
2018-04-18T11:01:32.634Z,20.70
2018-04-18T11:04:00.682Z,20.80
2018-04-18T11:06:28.738Z,20.80
2018-04-18T11:08:56.782Z,20.80
2018-04-18T11:11:24.831Z,21.00
2018-04-18T11:14:06.579Z,21.00
2018-04-18T11:16:34.621Z,21.00
2018-04-18T11:19:02.667Z,21.00
2018-04-18T11:21:30.715Z,21.10
2018-04-18T11:23:58.783Z,21.00
2018-04-18T11:26:26.826Z,21.00
2018-04-18T11:28:54.878Z,21.00
2018-04-18T11:31:22.971Z,21.10
2018-04-18T11:33:51.010Z,21.20
2018-04-18T11:36:19.073Z,21.20
2018-04-18T11:38:47.119Z,21.30
2018-04-18T11:41:15.149Z,21.40
2018-04-18T11:43:43.206Z,21.50
2018-04-18T11:46:11.249Z,21.50
2018-04-18T11:48:39.347Z,21.50
2018-04-18T11:51:07.426Z,21.60
2018-04-18T11:53:36.427Z,21.70
2018-04-18T11:56:04.446Z,21.70
2018-04-18T11:58:32.512Z,21.70
2018-04-18T12:01:00.561Z,21.80
2018-04-18T12:03:28.607Z,21.80
2018-04-18T12:05:56.677Z,21.90
2018-04-18T12:08:38.601Z,22.00
2018-04-18T12:11:06.658Z,22.10
2018-04-18T12:13:35.469Z,22.20
2018-04-18T12:16:03.506Z,22.20
2018-04-18T12:18:31.562Z,22.30
2018-04-18T12:20:59.603Z,22.40
2018-04-18T12:23:27.634Z,22.60
2018-04-18T12:26:02.554Z,22.60
2018-04-18T12:28:30.606Z,22.60
2018-04-18T12:30:58.647Z,22.70
2018-04-18T12:33:26.799Z,22.70
2018-04-18T12:36:04.681Z,22.70
2018-04-18T12:38:32.721Z,22.80
2018-04-18T12:41:00.771Z,22.90
2018-04-18T12:43:28.813Z,23.00
2018-04-18T12:45:57.649Z,23.10
2018-04-18T12:48:25.687Z,23.10
2018-04-18T12:50:53.750Z,23.30
2018-04-18T12:53:21.806Z,23.40
2018-04-18T12:55:49.841Z,23.40
2018-04-18T12:58:17.891Z,23.40
2018-04-18T13:00:45.958Z,23.40
2018-04-18T13:03:13.983Z,23.40
2018-04-18T13:05:42.022Z,23.40
2018-04-18T13:08:10.083Z,23.40
2018-04-18T13:10:38.123Z,23.50
2018-04-18T13:13:06.933Z,23.70
2018-04-18T13:15:34.980Z,23.70
2018-04-18T13:18:03.026Z,23.70
2018-04-18T13:20:31.067Z,23.70
2018-04-18T13:23:05.161Z,23.80
2018-04-18T13:25:33.208Z,23.90
2018-04-18T13:28:01.247Z,23.90
2018-04-18T13:30:29.384Z,23.90
2018-04-18T13:32:58.158Z,24.00
2018-04-18T13:35:27.327Z,24.00
2018-04-18T13:37:56.171Z,24.10
2018-04-18T13:40:24.981Z,24.20
2018-04-18T13:42:53.026Z,24.10
2018-04-18T13:45:21.078Z,24.20
2018-04-18T13:47:49.119Z,24.30
2018-04-18T13:50:17.953Z,24.50
2018-04-18T13:52:46.045Z,24.40
2018-04-18T13:55:14.042Z,24.50
2018-04-18T13:57:42.091Z,24.60
2018-04-18T14:00:10.144Z,24.60
2018-04-18T14:02:38.186Z,24.60
2018-04-18T14:05:06.250Z,24.70
2018-04-18T14:07:47.013Z,24.80
2018-04-18T14:10:15.002Z,24.80
2018-04-18T14:12:43.045Z,24.80
2018-04-18T14:15:11.108Z,24.90
2018-04-18T14:17:39.143Z,24.90
2018-04-18T14:20:07.178Z,25.00
2018-04-18T14:22:35.234Z,25.20
2018-04-18T14:25:03.270Z,25.10
2018-04-18T14:27:31.314Z,25.10
2018-04-18T14:29:59.369Z,25.20
2018-04-18T14:32:27.405Z,25.20
2018-04-18T14:34:55.473Z,25.20
2018-04-18T14:37:23.502Z,25.30
2018-04-18T14:39:51.538Z,25.30
2018-04-18T14:42:20.346Z,25.30
2018-04-18T14:44:53.299Z,25.30
2018-04-18T14:47:21.345Z,25.40
2018-04-18T14:49:49.391Z,25.40
2018-04-18T14:52:17.478Z,25.40
2018-04-18T14:54:45.518Z,25.40
2018-04-18T14:57:14.319Z,25.40
2018-04-18T14:59:42.379Z,25.40
2018-04-18T15:02:10.418Z,25.40
2018-04-18T15:04:38.459Z,25.50
2018-04-18T15:07:06.514Z,25.50
2018-04-18T15:09:34.549Z,25.60
2018-04-18T15:12:03.353Z,25.90
2018-04-18T15:14:31.402Z,25.90
2018-04-18T15:16:59.438Z,26.20
2018-04-18T15:19:27.481Z,26.70
2018-04-18T15:21:55.555Z,27.60
2018-04-18T15:24:23.609Z,28.60
2018-04-18T15:26:52.434Z,30.20
2018-04-18T15:29:20.493Z,30.10
2018-04-18T15:31:48.576Z,30.70
2018-04-18T15:34:24.546Z,31.10
2018-04-18T15:36:52.577Z,31.30
2018-04-18T15:39:20.621Z,31.60
2018-04-18T15:41:48.682Z,31.50
2018-04-18T15:44:16.735Z,30.80
2018-04-18T15:46:46.478Z,28.70
2018-04-18T15:49:14.529Z,28.70
2018-04-18T15:51:42.573Z,27.90
2018-04-18T15:54:10.619Z,27.50
2018-04-18T15:56:42.761Z,27.10
2018-04-18T15:59:10.802Z,26.90
2018-04-18T16:01:38.846Z,26.60
2018-04-18T16:04:06.904Z,26.40
2018-04-18T16:06:34.937Z,26.20
2018-04-18T16:09:02.991Z,26.10
2018-04-18T16:11:31.042Z,26.00
2018-04-18T16:13:59.078Z,25.90
2018-04-18T16:16:27.121Z,25.80
2018-04-18T16:18:55.178Z,25.80
2018-04-18T16:21:23.987Z,25.80
2018-04-18T16:23:52.030Z,25.70
2018-04-18T16:26:20.092Z,25.80
2018-04-18T16:28:48.133Z,25.70
2018-04-18T16:31:16.171Z,25.70
2018-04-18T16:33:44.223Z,25.70
2018-04-18T16:36:12.255Z,25.60
2018-04-18T16:38:43.346Z,25.60
2018-04-18T16:41:11.402Z,25.70
2018-04-18T16:43:39.449Z,25.70
2018-04-18T16:46:07.494Z,25.80
2018-04-18T16:48:36.309Z,28.10
2018-04-18T16:51:04.345Z,28.10
2018-04-18T16:53:32.387Z,29.60
2018-04-18T16:56:00.442Z,31.00
2018-04-18T16:58:28.487Z,31.70
2018-04-18T17:00:56.525Z,32.60
2018-04-18T17:03:24.573Z,32.70
2018-04-18T17:05:59.489Z,33.30
2018-04-18T17:08:27.537Z,33.60
2018-04-18T17:10:55.606Z,34.10
2018-04-18T17:13:23.652Z,34.50
2018-04-18T17:15:51.709Z,34.80
2018-04-18T17:18:19.770Z,34.80
2018-04-18T17:20:47.826Z,34.80
2018-04-18T17:23:15.874Z,34.90
2018-04-18T17:25:47.791Z,34.80
2018-04-18T17:28:15.854Z,34.90
2018-04-18T17:30:43.895Z,34.90
2018-04-18T17:33:11.941Z,34.50
2018-04-18T17:35:39.995Z,34.50
2018-04-18T17:38:08.046Z,34.40
2018-04-18T17:40:36.095Z,34.20
2018-04-18T17:43:04.160Z,33.80
2018-04-18T17:45:32.207Z,33.30
2018-04-18T17:48:00.261Z,33.10
2018-04-18T17:50:28.305Z,32.90
2018-04-18T17:52:56.338Z,32.60
2018-04-18T17:55:24.393Z,32.20
2018-04-18T17:57:52.450Z,31.60
2018-04-18T18:00:20.489Z,31.00
2018-04-18T18:02:48.532Z,30.20
2018-04-18T18:05:16.615Z,29.70
2018-04-18T18:07:44.649Z,29.20
2018-04-18T18:10:12.694Z,28.50
2018-04-18T18:12:40.750Z,27.60
2018-04-18T18:15:08.794Z,26.80
2018-04-18T18:17:42.851Z,26.10
2018-04-18T18:20:10.902Z,25.60
2018-04-18T18:22:38.945Z,25.10
2018-04-18T18:25:06.998Z,24.70
2018-04-18T18:27:36.038Z,24.30
2018-04-18T18:30:04.088Z,24.00
2018-04-18T18:32:32.162Z,23.60
2018-04-18T18:35:00.206Z,23.30
2018-04-18T18:37:28.269Z,23.00
2018-04-18T18:39:56.368Z,22.80
2018-04-18T18:42:24.410Z,22.50
2018-04-18T18:44:53.241Z,22.10
2018-04-18T18:47:21.305Z,22.10
2018-04-18T18:49:49.360Z,21.90
2018-04-18T18:52:17.409Z,21.80
2018-04-18T18:54:46.262Z,21.50
2018-04-18T18:57:14.306Z,21.50
2018-04-18T18:59:42.357Z,21.40
2018-04-18T19:02:10.413Z,21.30
2018-04-18T19:04:38.453Z,21.10
2018-04-18T19:07:06.516Z,21.00
2018-04-18T19:09:34.571Z,20.90
2018-04-18T19:12:02.593Z,20.80
2018-04-18T19:14:30.647Z,20.70
2018-04-18T19:16:58.714Z,20.60
2018-04-18T19:19:26.749Z,20.50
2018-04-18T19:21:54.813Z,20.50
2018-04-18T19:24:23.626Z,20.30
2018-04-18T19:26:51.694Z,20.30
2018-04-18T19:29:19.767Z,20.30
2018-04-18T19:31:47.819Z,20.20
2018-04-18T19:34:15.866Z,20.10
2018-04-18T19:36:43.934Z,20.00
2018-04-18T19:39:12.010Z,19.90
2018-04-18T19:41:40.046Z,19.80
2018-04-18T19:44:08.130Z,19.70
2018-04-18T19:46:36.199Z,19.60
2018-04-18T19:49:04.266Z,19.50
2018-04-18T19:51:32.301Z,19.40
2018-04-18T19:54:00.383Z,19.40
2018-04-18T19:56:28.418Z,19.30
2018-04-18T19:58:57.270Z,19.10
2018-04-18T20:01:25.321Z,19.00
2018-04-18T20:03:53.362Z,19.00
2018-04-18T20:06:21.398Z,18.90
2018-04-18T20:08:49.469Z,18.80
2018-04-18T20:11:17.510Z,18.70
2018-04-18T20:13:45.553Z,18.60
2018-04-18T20:16:26.235Z,18.50
2018-04-18T20:18:54.258Z,18.50
2018-04-18T20:21:22.298Z,18.40
2018-04-18T20:23:50.361Z,18.30
2018-04-18T20:26:18.437Z,18.20
2018-04-18T20:28:46.478Z,18.20
2018-04-18T20:31:14.576Z,18.20
2018-04-18T20:33:42.614Z,18.10
2018-04-18T20:36:10.651Z,18.10
2018-04-18T20:38:38.726Z,18.00
2018-04-18T20:41:06.782Z,18.00
2018-04-18T20:43:34.819Z,17.90
2018-04-18T20:46:02.886Z,17.90
2018-04-18T20:48:30.931Z,17.80
2018-04-18T20:50:59.015Z,17.80
2018-04-18T20:53:27.069Z,17.70
2018-04-18T20:55:55.122Z,17.60
2018-04-18T20:58:23.173Z,17.60
2018-04-18T21:00:51.352Z,17.50
2018-04-18T21:03:19.394Z,17.50
2018-04-18T21:05:47.460Z,17.40
2018-04-18T21:08:15.497Z,17.40
2018-04-18T21:10:43.942Z,17.30
2018-04-18T21:13:11.997Z,17.30
2018-04-18T21:15:40.065Z,17.20
2018-04-18T21:18:08.175Z,17.20
2018-04-18T21:20:36.286Z,17.10
2018-04-18T21:23:04.261Z,17.10
2018-04-18T21:25:32.312Z,17.00
2018-04-18T21:28:00.350Z,17.00
2018-04-18T21:30:28.401Z,16.90
2018-04-18T21:32:56.447Z,16.90
2018-04-18T21:35:25.285Z,16.80
2018-04-18T21:37:53.378Z,16.70
2018-04-18T21:40:21.419Z,16.70
2018-04-18T21:42:49.457Z,16.70
2018-04-18T21:45:17.517Z,16.60
2018-04-18T21:47:51.418Z,16.50
2018-04-18T21:50:19.469Z,16.50
2018-04-18T21:52:47.524Z,16.50
2018-04-18T21:55:15.561Z,16.40
2018-04-18T21:57:43.621Z,16.40
2018-04-18T22:00:12.442Z,16.30
2018-04-18T22:02:40.487Z,16.30
2018-04-18T22:05:08.538Z,16.20
2018-04-18T22:07:36.577Z,16.20
2018-04-18T22:10:04.618Z,16.10
2018-04-18T22:12:32.670Z,16.10
2018-04-18T22:15:01.517Z,16.00
2018-04-18T22:17:29.554Z,16.00
2018-04-18T22:19:57.597Z,16.00
2018-04-18T22:22:25.646Z,15.90
2018-04-18T22:24:53.682Z,15.90
2018-04-18T22:27:21.774Z,15.80
2018-04-18T22:29:49.819Z,15.80
2018-04-18T22:32:17.874Z,15.80
2018-04-18T22:34:45.933Z,15.70
2018-04-18T22:37:14.746Z,15.70
2018-04-18T22:39:42.819Z,15.60
2018-04-18T22:42:10.858Z,15.60
2018-04-18T22:44:38.914Z,15.60
2018-04-18T22:47:06.991Z,15.60
2018-04-18T22:49:35.042Z,15.50
2018-04-18T22:52:03.077Z,15.50
2018-04-18T22:54:31.126Z,15.40
2018-04-18T22:56:59.938Z,15.30
2018-04-18T22:59:27.982Z,15.30
2018-04-18T23:01:56.018Z,15.30
2018-04-18T23:04:24.082Z,15.20
2018-04-18T23:06:52.126Z,15.20
2018-04-18T23:09:20.169Z,15.20
2018-04-18T23:11:48.985Z,15.10
2018-04-18T23:14:17.019Z,15.10
2018-04-18T23:16:45.067Z,15.10
2018-04-18T23:19:13.123Z,15.10
2018-04-18T23:21:41.166Z,15.10
2018-04-18T23:24:09.280Z,15.00
2018-04-18T23:26:37.278Z,15.00
2018-04-18T23:29:05.314Z,15.00
2018-04-18T23:31:34.118Z,14.90
2018-04-18T23:34:02.169Z,14.80
2018-04-18T23:36:30.215Z,14.80
2018-04-18T23:38:58.262Z,14.80
2018-04-18T23:41:27.077Z,14.70
2018-04-18T23:43:55.117Z,14.70
2018-04-18T23:46:23.154Z,14.70
2018-04-18T23:48:51.211Z,14.70
2018-04-18T23:51:19.252Z,14.70
2018-04-18T23:53:47.303Z,14.70
2018-04-18T23:56:15.337Z,14.70
2018-04-18T23:58:44.193Z,14.60
